createdAt,value
2022-10-21T00:03:35.498Z,14.40
2022-10-21T00:08:38.907Z,13.93
2022-10-21T00:13:41.614Z,14.43
2022-10-21T00:18:45.745Z,14.30
2022-10-21T00:23:50.120Z,12.93
2022-10-21T00:28:58.798Z,12.03
2022-10-21T00:34:01.193Z,13.63
2022-10-21T00:39:03.766Z,15.13
2022-10-21T00:44:09.311Z,10.10
2022-10-21T00:49:41.392Z,10.60
2022-10-21T00:54:46.805Z,12.67
2022-10-21T00:59:54.249Z,13.83
2022-10-21T01:05:01.083Z,9.47
2022-10-21T01:10:03.769Z,11.60
2022-10-21T01:15:20.747Z,12.33
2022-10-21T01:20:54.742Z,9.43
2022-10-21T01:26:08.992Z,9.93
2022-10-21T01:31:36.495Z,15.03
2022-10-21T01:37:01.384Z,9.83
2022-10-21T01:47:15.249Z,10.73
2022-10-21T01:52:17.939Z,12.40
2022-10-21T01:57:24.414Z,17.43
2022-10-21T02:02:34.154Z,9.60
2022-10-21T02:07:36.754Z,8.30
2022-10-21T02:12:42.471Z,11.93
2022-10-21T02:17:58.084Z,9.63
2022-10-21T02:23:01.139Z,12.53
2022-10-21T02:28:04.641Z,12.23
2022-10-21T02:33:27.432Z,9.13
2022-10-21T02:38:38.902Z,12.80
2022-10-21T02:43:50.778Z,12.07
2022-10-21T02:48:54.170Z,9.83
2022-10-21T02:53:57.191Z,13.00
2022-10-21T02:58:59.538Z,8.47
2022-10-21T03:04:01.904Z,9.57
2022-10-21T03:09:05.422Z,9.93
2022-10-21T03:14:07.846Z,11.30
2022-10-21T03:19:10.979Z,12.53
2022-10-21T03:24:19.806Z,14.27
2022-10-21T03:29:30.068Z,8.37
2022-10-21T03:34:32.483Z,15.20
2022-10-21T03:39:34.838Z,9.80
2022-10-21T03:44:37.150Z,8.60
2022-10-21T03:49:39.554Z,11.80
2022-10-21T03:54:42.180Z,13.27
2022-10-21T03:59:44.528Z,10.80
2022-10-21T04:04:46.873Z,9.27
2022-10-21T04:09:49.214Z,12.10
2022-10-21T04:14:51.588Z,8.43
2022-10-21T04:19:54.013Z,9.40
2022-10-21T04:24:58.660Z,8.80
2022-10-21T04:30:03.871Z,10.57
2022-10-21T04:35:06.688Z,11.63
2022-10-21T04:40:09.901Z,8.73
2022-10-21T04:45:12.522Z,10.40
2022-10-21T04:50:15.116Z,8.80
2022-10-21T04:55:17.539Z,8.33
2022-10-21T05:00:19.952Z,8.57
2022-10-21T05:05:22.295Z,9.30
2022-10-21T05:10:25.605Z,7.33
2022-10-21T05:15:28.032Z,9.83
2022-10-21T05:20:30.376Z,8.20
2022-10-21T05:25:34.379Z,10.80
2022-10-21T05:30:37.321Z,8.13
2022-10-21T05:35:39.870Z,13.17
2022-10-21T05:40:42.530Z,6.33
2022-10-21T05:45:45.064Z,5.73
2022-10-21T05:50:47.983Z,7.10
2022-10-21T05:56:16.581Z,6.17
2022-10-21T06:01:19.106Z,7.00
2022-10-21T06:06:21.575Z,9.47
2022-10-21T06:11:24.359Z,6.90
2022-10-21T06:16:26.772Z,10.57
2022-10-21T06:21:29.123Z,5.80
2022-10-21T06:26:34.603Z,6.27
2022-10-21T06:31:39.330Z,7.10
2022-10-21T06:36:41.932Z,8.57
2022-10-21T06:41:44.518Z,8.77
2022-10-21T06:46:54.167Z,8.77
2022-10-21T06:51:56.528Z,7.27
2022-10-21T06:56:58.890Z,11.07
2022-10-21T07:02:01.569Z,9.60
2022-10-21T07:07:04.578Z,6.90
2022-10-21T07:12:06.950Z,12.63
2022-10-21T07:17:09.537Z,7.70
2022-10-21T07:22:13.379Z,10.60
2022-10-21T07:27:15.863Z,11.17
2022-10-21T07:32:18.476Z,5.37
2022-10-21T07:37:20.881Z,7.93
2022-10-21T07:42:24.631Z,7.57
2022-10-21T07:47:27.134Z,9.20
2022-10-21T07:52:30.321Z,5.67
2022-10-21T07:57:34.617Z,8.87
2022-10-21T08:02:37.805Z,6.27
2022-10-21T08:07:40.542Z,8.23
2022-10-21T08:12:43.238Z,6.83
2022-10-21T08:17:45.847Z,10.17
2022-10-21T08:22:48.257Z,6.90
2022-10-21T08:27:50.707Z,5.93
2022-10-21T08:32:53.094Z,6.13
2022-10-21T08:37:55.681Z,10.90
2022-10-21T08:43:15.490Z,6.67
2022-10-21T08:48:24.075Z,6.40
2022-10-21T08:53:48.799Z,7.57
2022-10-21T08:58:52.794Z,7.90
2022-10-21T09:04:18.602Z,8.27
2022-10-21T09:09:26.603Z,10.03
2022-10-21T09:14:43.314Z,8.70
2022-10-21T09:20:10.190Z,4.57
2022-10-21T09:25:26.525Z,9.23
2022-10-21T09:30:28.928Z,7.57
2022-10-21T09:35:39.207Z,4.47
2022-10-21T09:40:41.750Z,7.07
2022-10-21T09:45:47.649Z,3.47
2022-10-21T09:51:12.883Z,6.07
2022-10-21T09:56:52.736Z,2.77
2022-10-21T10:01:57.303Z,3.87
2022-10-21T10:07:21.922Z,4.13
2022-10-21T10:12:26.562Z,25.27
2022-10-21T10:17:38.607Z,3.27
2022-10-21T10:22:43.163Z,2.47
2022-10-21T10:27:53.900Z,5.73
2022-10-21T10:32:57.202Z,2.40
2022-10-21T10:38:02.568Z,6.80
2022-10-21T10:43:15.811Z,3.37
2022-10-21T10:48:38.700Z,7.43
2022-10-21T10:53:41.230Z,4.27
2022-10-21T10:58:58.744Z,4.73
2022-10-21T11:04:21.477Z,3.13
2022-10-21T11:09:27.324Z,3.57
2022-10-21T11:14:29.972Z,7.43
2022-10-21T11:19:45.270Z,8.30
2022-10-21T11:24:59.793Z,2.77
2022-10-21T11:30:28.592Z,2.70
2022-10-21T11:36:09.250Z,1.70
2022-10-21T11:41:27.271Z,3.70
2022-10-21T11:46:58.364Z,3.60
2022-10-21T11:52:38.550Z,1.80
2022-10-21T11:57:57.544Z,5.87
2022-10-21T12:03:23.257Z,1.77
2022-10-21T12:08:28.554Z,1.27
2022-10-21T12:13:50.711Z,2.00
2022-10-21T12:19:00.973Z,1.73
2022-10-21T12:24:32.217Z,1.97
2022-10-21T12:30:03.107Z,3.57
2022-10-21T12:35:06.251Z,1.00
2022-10-21T12:40:25.621Z,1.03
2022-10-21T12:45:37.498Z,2.90
2022-10-21T12:50:41.322Z,1.67
2022-10-21T12:55:59.334Z,1.50
2022-10-21T13:01:02.921Z,1.73
2022-10-21T13:06:07.615Z,0.90
2022-10-21T13:11:09.932Z,1.97
2022-10-21T13:16:21.596Z,1.00
2022-10-21T13:21:29.505Z,0.90
2022-10-21T13:26:32.526Z,2.73
2022-10-21T13:31:35.332Z,2.23
2022-10-21T13:36:43.033Z,1.87
2022-10-21T13:41:45.523Z,3.47
2022-10-21T13:46:48.014Z,1.50
2022-10-21T13:51:52.962Z,3.20
2022-10-21T13:56:55.383Z,2.97
2022-10-21T14:01:58.488Z,2.30
2022-10-21T14:07:08.675Z,1.37
2022-10-21T14:12:41.918Z,2.27
2022-10-21T14:17:55.325Z,3.13
2022-10-21T14:22:57.809Z,0.87
2022-10-21T14:28:03.575Z,2.83
2022-10-21T14:33:11.210Z,1.60
2022-10-21T14:38:29.407Z,1.67
2022-10-21T14:43:35.829Z,4.67
2022-10-21T14:48:59.561Z,1.67
2022-10-21T14:54:07.980Z,2.20
2022-10-21T14:59:29.254Z,0.90
2022-10-21T15:04:51.523Z,1.03
2022-10-21T15:10:04.391Z,1.90
2022-10-21T15:15:43.448Z,1.23
2022-10-21T15:20:53.386Z,1.70
2022-10-21T15:26:00.566Z,1.57
2022-10-21T15:31:04.756Z,2.03
2022-10-21T15:36:09.848Z,1.67
2022-10-21T15:41:16.029Z,0.90
2022-10-21T15:46:18.402Z,0.97
2022-10-21T15:51:21.091Z,1.27
2022-10-21T15:56:24.397Z,0.93
2022-10-21T16:01:27.897Z,3.07
2022-10-21T16:06:30.365Z,2.63
2022-10-21T16:11:40.681Z,1.23
2022-10-21T16:16:47.352Z,1.53
2022-10-21T16:21:49.691Z,2.10
2022-10-21T16:26:52.102Z,1.27
2022-10-21T16:31:55.307Z,1.03
2022-10-21T16:36:57.726Z,1.80
2022-10-21T16:42:00.237Z,2.33
2022-10-21T16:47:03.484Z,1.00
2022-10-21T16:52:05.852Z,1.73
2022-10-21T16:57:08.326Z,2.10
2022-10-21T17:02:16.745Z,0.80
2022-10-21T17:07:19.262Z,1.00
2022-10-21T17:12:22.680Z,0.93
2022-10-21T17:17:25.203Z,0.93
2022-10-21T17:22:27.773Z,1.23
2022-10-21T17:27:30.265Z,1.87
2022-10-21T17:32:32.845Z,2.33
2022-10-21T17:37:35.275Z,1.33
2022-10-21T17:42:37.995Z,1.83
2022-10-21T17:47:41.509Z,1.43
2022-10-21T17:52:44.109Z,1.30
2022-10-21T17:57:46.974Z,1.20
2022-10-21T18:02:49.389Z,1.53
2022-10-21T18:07:51.753Z,1.37
2022-10-21T18:12:54.096Z,1.30
2022-10-21T18:17:56.458Z,3.63
2022-10-21T18:22:58.810Z,1.23
2022-10-21T18:28:01.194Z,2.90
2022-10-21T18:33:03.612Z,1.30
2022-10-21T18:38:06.078Z,1.70
2022-10-21T18:43:08.498Z,0.93
2022-10-21T18:48:10.887Z,1.17
2022-10-21T18:53:13.583Z,2.30
2022-10-21T18:58:15.984Z,3.20
2022-10-21T19:03:18.506Z,1.60
2022-10-21T19:08:20.900Z,3.90
2022-10-21T19:13:23.330Z,1.73
2022-10-21T19:18:27.589Z,2.53
2022-10-21T19:23:32.461Z,1.87
2022-10-21T19:28:36.154Z,2.23
2022-10-21T19:33:39.551Z,1.97
2022-10-21T19:38:45.186Z,1.90
2022-10-21T19:43:48.024Z,1.40
2022-10-21T19:48:50.892Z,3.73
2022-10-21T19:53:54.959Z,2.50
2022-10-21T19:58:57.907Z,5.50
2022-10-21T20:04:02.357Z,1.50
2022-10-21T20:09:13.232Z,3.00
2022-10-21T20:14:15.997Z,1.50
2022-10-21T20:19:18.397Z,4.37
2022-10-21T20:24:20.748Z,2.00
2022-10-21T20:29:23.185Z,3.07
2022-10-21T20:34:26.401Z,5.67
2022-10-21T20:39:28.905Z,4.37
2022-10-21T20:44:31.340Z,2.77
2022-10-21T20:49:33.800Z,3.13
2022-10-21T20:54:36.395Z,2.27
2022-10-21T20:59:38.759Z,2.20
2022-10-21T21:04:41.217Z,3.30
2022-10-21T21:10:01.820Z,2.47
2022-10-21T21:15:05.507Z,2.40
2022-10-21T21:20:08.604Z,6.43
2022-10-21T21:25:11.268Z,3.87
2022-10-21T21:30:14.033Z,2.27
2022-10-21T21:35:16.521Z,4.17
2022-10-21T21:40:18.881Z,3.00
2022-10-21T21:45:21.331Z,3.17
2022-10-21T21:50:23.693Z,1.77
2022-10-21T21:55:26.469Z,3.23
2022-10-21T22:00:29.197Z,2.83
2022-10-21T22:05:32.050Z,3.13
2022-10-21T22:10:34.679Z,3.10
2022-10-21T22:15:47.562Z,2.63
2022-10-21T22:20:50.738Z,2.10
2022-10-21T22:25:53.205Z,1.53
2022-10-21T22:30:59.851Z,5.03
2022-10-21T22:36:03.684Z,0.90
2022-10-21T22:41:09.916Z,1.40
2022-10-21T22:46:33.488Z,1.17
2022-10-21T22:51:36.896Z,0.77
2022-10-21T22:56:39.679Z,0.37
2022-10-21T23:01:42.217Z,2.57
2022-10-21T23:06:44.811Z,2.03
2022-10-21T23:11:47.311Z,0.50
2022-10-21T23:16:49.694Z,0.77
2022-10-21T23:21:52.055Z,0.50
2022-10-21T23:26:58.981Z,0.80
2022-10-21T23:32:04.139Z,1.23
2022-10-21T23:37:06.905Z,0.90
2022-10-21T23:42:09.370Z,0.83
2022-10-21T23:47:11.814Z,0.37
2022-10-21T23:52:14.365Z,0.50
2022-10-21T23:57:16.748Z,0.40
